Tavernes Blanques, Spain
Current Conditions -  °F | °C
As of 1:00 AM on Sunday 21 Dec 2014 (Local Time) from LEVC Reporting Station
Haze Haze  
Wind Chill: 45°   Ceiling: Unl
Heat Index: 45°   Visibility: 2.8mi
Dew Point: 45°   Wind: 1mph
Humidity: 100%   Direction: NA
Pressure: 30.45"   Gusts: NA
Location:  39.5°N, 0.37°W
Report Text: LEVC 210000Z VRB01KT 4500 BR NSC 07/07 Q1031 NOSIG
Loading
Personal Weather Stations






























Interactive Weather Map New forecast layout! Learn more

10-Day Weather Forecast

Advertisements
Track Severe Weather on mobile